Lyster, Canada
Current Conditions -  °F | °C
As of 7:00 AM on Monday 22 Dec 2014 (Local Time) from CYQB Reporting Station
Light Snow Light Snow  
Wind Chill: 16°   Ceiling: 2100
Heat Index: 16°   Visibility: 10mi
Dew Point: 10°   Wind: 3mph
Humidity: 79%   Direction: 360°N
Pressure: 30.43"   Gusts: NA
Location:  46.37°N, 71.62°W
Report Text: CYQB 221200Z 36003KT 10SM -SN OVC021 M09/M12 A3043 RMK SC8 SLP310
Loading
Personal Weather Stations






























Interactive Weather Map New forecast layout! Learn more

10-Day Weather Forecast

Advertisements
Track Severe Weather on mobile